createdAt,value
2022-10-11T00:03:05.915Z,5.28
2022-10-11T00:08:08.558Z,3.85
2022-10-11T00:13:12.488Z,4.95
2022-10-11T00:18:15.092Z,8.82
2022-10-11T00:23:18.028Z,4.45
2022-10-11T00:28:22.072Z,5.10
2022-10-11T00:33:24.900Z,6.60
2022-10-11T00:38:27.802Z,4.53
2022-10-11T00:43:33.125Z,3.45
2022-10-11T00:48:41.333Z,3.42
2022-10-11T00:53:44.737Z,5.38
2022-10-11T00:58:48.787Z,6.93
2022-10-11T01:03:51.555Z,5.70
2022-10-11T01:08:54.762Z,5.68
2022-10-11T01:14:16.028Z,3.80
2022-10-11T01:19:30.263Z,6.38
2022-10-11T01:24:49.977Z,2.38
2022-10-11T01:30:02.729Z,4.53
2022-10-11T01:35:10.862Z,3.83
2022-10-11T01:40:15.601Z,5.18
2022-10-11T01:45:19.931Z,5.05
2022-10-11T01:50:39.013Z,4.95
2022-10-11T01:55:48.088Z,5.35
2022-10-11T02:00:53.362Z,2.58
2022-10-11T02:06:01.138Z,3.67
2022-10-11T02:11:09.954Z,3.47
2022-10-11T02:16:14.393Z,2.58
2022-10-11T02:21:20.773Z,3.78
2022-10-11T02:26:24.547Z,2.35
2022-10-11T02:31:27.329Z,6.63
2022-10-11T02:36:37.704Z,4.60
2022-10-11T02:41:43.047Z,3.45
2022-10-11T02:46:46.626Z,3.63
2022-10-11T02:51:50.587Z,2.70
2022-10-11T02:56:53.286Z,3.38
2022-10-11T03:01:55.956Z,5.55
2022-10-11T03:06:59.965Z,2.83
2022-10-11T03:12:02.584Z,5.30
2022-10-11T03:17:31.080Z,3.17
2022-10-11T03:22:29.263Z,2.30
2022-10-11T03:27:31.915Z,3.78
2022-10-11T03:32:34.634Z,2.72
2022-10-11T03:37:38.749Z,4.70
2022-10-11T03:42:41.397Z,3.95
2022-10-11T03:47:44.063Z,4.40
2022-10-11T03:52:48.033Z,4.78
2022-10-11T03:57:50.787Z,4.00
2022-10-11T04:02:53.430Z,6.93
2022-10-11T04:07:57.391Z,4.22
2022-10-11T04:13:00.017Z,4.85
2022-10-11T04:18:02.615Z,1.27
2022-10-11T04:23:06.727Z,2.42
2022-10-11T04:28:09.637Z,1.95
2022-10-11T04:33:12.290Z,1.92
2022-10-11T04:38:16.241Z,1.63
2022-10-11T04:43:18.996Z,1.70
2022-10-11T04:48:21.619Z,3.78
2022-10-11T04:53:25.715Z,3.13
2022-10-11T04:58:28.653Z,1.42
2022-10-11T05:03:31.497Z,2.63
2022-10-11T05:08:35.521Z,1.42
2022-10-11T05:13:38.649Z,2.60
2022-10-11T05:18:41.560Z,2.22
2022-10-11T05:23:45.985Z,1.83
2022-10-11T05:28:48.971Z,9.82
2022-10-11T05:33:51.658Z,3.72
2022-10-11T05:38:55.622Z,1.73
2022-10-11T05:43:58.262Z,1.08
2022-10-11T05:49:00.958Z,2.75
2022-10-11T05:54:05.089Z,3.30
2022-10-11T05:59:07.730Z,2.30
2022-10-11T06:04:11.755Z,2.65
2022-10-11T06:09:15.775Z,2.45
2022-10-11T06:14:18.841Z,5.07
2022-10-11T06:19:21.475Z,4.60
2022-10-11T06:24:25.912Z,2.53
2022-10-11T06:29:28.524Z,3.05
2022-10-11T06:34:31.121Z,3.47
2022-10-11T06:39:35.216Z,4.07
2022-10-11T06:44:37.889Z,4.18
2022-10-11T06:49:40.505Z,4.03
2022-10-11T06:54:45.613Z,4.57
2022-10-11T06:59:48.252Z,3.45
2022-10-11T07:04:50.855Z,5.05
2022-10-11T07:09:54.839Z,6.63
2022-10-11T07:14:57.435Z,7.97
2022-10-11T07:20:00.053Z,6.30
2022-10-11T07:25:04.482Z,4.80
2022-10-11T07:30:08.508Z,4.53
2022-10-11T07:35:11.193Z,5.70
2022-10-11T07:40:15.250Z,8.23
2022-10-11T07:45:18.011Z,5.25
2022-10-11T07:50:20.920Z,10.65
2022-10-11T07:55:25.584Z,10.55
2022-10-11T08:00:28.228Z,10.25
2022-10-11T08:05:31.202Z,6.30
2022-10-11T08:10:39.422Z,5.45
2022-10-11T08:15:42.292Z,9.75
2022-10-11T08:20:45.743Z,7.95
2022-10-11T08:25:49.736Z,3.95
2022-10-11T08:30:53.708Z,6.30
2022-10-11T08:35:57.370Z,9.23
2022-10-11T08:41:02.346Z,8.85
2022-10-11T08:46:05.809Z,8.98
2022-10-11T08:51:16.298Z,7.18
2022-10-11T08:56:21.389Z,6.35
2022-10-11T09:01:25.988Z,7.03
2022-10-11T09:06:37.691Z,6.28
2022-10-11T09:11:53.010Z,6.30
2022-10-11T09:17:03.358Z,6.38
2022-10-11T09:22:09.462Z,4.75
2022-10-11T09:27:25.903Z,5.30
2022-10-11T09:32:41.779Z,5.63
2022-10-11T09:37:51.744Z,7.20
2022-10-11T09:42:55.900Z,8.10
2022-10-11T09:48:01.219Z,7.43
2022-10-11T09:53:07.586Z,4.60
2022-10-11T09:58:27.837Z,7.20
2022-10-11T10:03:32.376Z,9.68
2022-10-11T10:08:35.533Z,4.28
2022-10-11T10:13:47.863Z,4.03
2022-10-11T10:18:53.261Z,6.20
2022-10-11T10:23:56.642Z,3.58
2022-10-11T10:29:04.857Z,9.43
2022-10-11T10:34:13.664Z,3.92
2022-10-11T10:39:22.585Z,6.47
2022-10-11T10:44:26.719Z,8.40
2022-10-11T10:49:53.216Z,5.40
2022-10-11T10:55:00.589Z,3.67
2022-10-11T11:00:12.249Z,7.97
2022-10-11T11:05:22.992Z,5.75
2022-10-11T11:10:29.873Z,5.97
2022-10-11T11:15:38.316Z,8.35
2022-10-11T11:20:53.381Z,7.05
2022-10-11T11:26:03.910Z,4.40
2022-10-11T11:31:14.807Z,4.45
2022-10-11T11:36:20.155Z,3.28
2022-10-11T11:41:24.423Z,4.40
2022-10-11T11:46:31.044Z,3.60
2022-10-11T11:51:35.409Z,3.92
2022-10-11T11:56:48.949Z,5.07
2022-10-11T12:02:02.919Z,3.75
2022-10-11T12:07:16.669Z,3.00
2022-10-11T12:12:33.785Z,2.75
2022-10-11T12:18:01.031Z,4.05
2022-10-11T12:23:05.469Z,4.28
2022-10-11T12:28:48.647Z,5.75
2022-10-11T12:34:03.984Z,4.28
2022-10-11T12:39:54.559Z,4.10
2022-10-11T12:45:25.931Z,5.88
2022-10-11T12:50:34.866Z,6.32
2022-10-11T12:55:50.834Z,4.70
2022-10-11T13:01:24.341Z,3.08
2022-10-11T13:06:30.987Z,4.13
2022-10-11T13:11:35.975Z,4.10
2022-10-11T13:17:00.334Z,6.57
2022-10-11T13:22:06.662Z,3.47
2022-10-11T13:27:17.165Z,3.33
2022-10-11T13:32:23.874Z,3.03
2022-10-11T13:37:29.390Z,5.93
2022-10-11T13:42:33.065Z,2.45
2022-10-11T13:47:36.189Z,1.92
2022-10-11T13:52:53.757Z,3.22
2022-10-11T13:57:57.981Z,6.88
2022-10-11T14:03:03.711Z,5.25
2022-10-11T14:08:19.121Z,6.00
2022-10-11T14:13:25.043Z,4.60
2022-10-11T14:18:40.257Z,3.58
2022-10-11T14:23:44.193Z,3.65
2022-10-11T14:28:47.231Z,5.25
2022-10-11T14:33:49.905Z,3.22
2022-10-11T14:38:54.278Z,4.82
2022-10-11T14:43:57.819Z,3.83
2022-10-11T14:49:00.579Z,1.38
2022-10-11T14:54:04.806Z,3.13
2022-10-11T14:59:07.629Z,3.40
2022-10-11T15:04:10.322Z,4.93
2022-10-11T15:09:14.515Z,10.00
2022-10-11T15:14:17.871Z,2.67
2022-10-11T15:19:22.303Z,5.88
2022-10-11T15:24:27.871Z,3.55
2022-10-11T15:29:30.545Z,10.15
2022-10-11T15:34:33.194Z,5.40
2022-10-11T15:39:37.181Z,4.00
2022-10-11T15:44:39.829Z,3.40
2022-10-11T15:49:42.624Z,3.53
2022-10-11T15:54:46.552Z,1.65
2022-10-11T15:59:49.415Z,2.72
2022-10-11T16:04:54.001Z,7.32
2022-10-11T16:09:58.083Z,4.32
2022-10-11T16:15:00.701Z,2.83
2022-10-11T16:20:06.216Z,3.75
2022-10-11T16:25:10.504Z,9.15
2022-10-11T16:30:14.797Z,5.13
2022-10-11T16:35:18.031Z,7.35
2022-10-11T16:40:22.110Z,5.43
2022-10-11T16:45:24.973Z,7.43
2022-10-11T16:50:27.853Z,6.15
2022-10-11T16:55:31.855Z,5.68
2022-10-11T17:00:34.587Z,8.70
2022-10-11T17:05:37.673Z,8.27
2022-10-11T17:10:44.341Z,10.30
2022-10-11T17:15:47.095Z,9.13
2022-10-11T17:20:49.818Z,9.65
2022-10-11T17:25:54.115Z,8.50
2022-10-11T17:30:57.580Z,7.32
2022-10-11T17:36:01.512Z,12.43
2022-10-11T17:41:08.140Z,15.63
2022-10-11T17:46:12.853Z,14.05
2022-10-11T17:51:18.053Z,10.27
2022-10-11T17:56:28.153Z,15.75
2022-10-11T18:01:32.363Z,17.42
2022-10-11T18:06:39.270Z,12.18
2022-10-11T18:11:43.485Z,13.50
2022-10-11T18:16:46.544Z,10.15
2022-10-11T18:21:49.254Z,9.15
2022-10-11T18:26:53.226Z,10.85
2022-10-11T18:31:55.880Z,11.07
2022-10-11T18:36:58.640Z,15.60
2022-10-11T18:42:04.440Z,14.57
2022-10-11T18:47:07.082Z,14.43
2022-10-11T18:52:09.715Z,9.93
2022-10-11T18:57:13.664Z,9.13
2022-10-11T19:02:16.308Z,7.82
2022-10-11T19:07:19.011Z,8.27
2022-10-11T19:12:22.977Z,8.27
2022-10-11T19:17:25.782Z,9.25
2022-10-11T19:22:28.446Z,12.77
2022-10-11T19:27:32.418Z,13.02
2022-10-11T19:32:35.066Z,15.30
2022-10-11T19:37:37.875Z,15.50
2022-10-11T19:42:41.827Z,12.35
2022-10-11T19:47:44.609Z,10.90
2022-10-11T19:52:47.422Z,9.75
2022-10-11T19:57:51.415Z,10.02
2022-10-11T20:02:54.169Z,6.93
2022-10-11T20:07:56.921Z,9.80
2022-10-11T20:13:00.983Z,7.60
2022-10-11T20:18:03.781Z,7.53
2022-10-11T20:23:06.456Z,6.00
2022-10-11T20:28:10.590Z,8.55
2022-10-11T20:33:13.303Z,11.20
2022-10-11T20:38:15.903Z,9.20
2022-10-11T20:43:19.915Z,9.57
2022-10-11T20:48:22.554Z,9.98
2022-10-11T20:53:25.802Z,7.90
2022-10-11T20:58:29.910Z,8.30
2022-10-11T21:03:32.514Z,6.85
2022-10-11T21:08:36.008Z,7.22
2022-10-11T21:13:40.040Z,8.40
2022-10-11T21:18:43.319Z,5.43
2022-10-11T21:23:47.238Z,6.95
2022-10-11T21:28:51.273Z,8.50
2022-10-11T21:33:54.014Z,7.25
2022-10-11T21:38:57.641Z,6.88
2022-10-11T21:44:01.759Z,7.50
2022-10-11T21:49:04.459Z,8.93
2022-10-11T21:54:07.116Z,8.70
2022-10-11T21:59:12.552Z,7.63
2022-10-11T22:04:15.806Z,8.18
2022-10-11T22:09:18.490Z,8.02
2022-10-11T22:14:22.635Z,5.13
2022-10-11T22:19:25.578Z,7.20
2022-10-11T22:24:29.091Z,8.38
2022-10-11T22:29:34.354Z,9.45
2022-10-11T22:34:37.155Z,9.85
2022-10-11T22:39:39.748Z,9.88
2022-10-11T22:44:43.735Z,10.52
2022-10-11T22:49:46.395Z,8.95
2022-10-11T22:54:49.141Z,6.53
2022-10-11T22:59:53.259Z,5.32
2022-10-11T23:04:56.419Z,5.00
2022-10-11T23:09:58.998Z,5.55
2022-10-11T23:15:03.106Z,4.82
2022-10-11T23:20:07.036Z,6.70
2022-10-11T23:25:10.389Z,4.60
2022-10-11T23:30:15.413Z,4.65
2022-10-11T23:35:18.041Z,4.75
2022-10-11T23:40:20.662Z,4.32
2022-10-11T23:45:24.634Z,5.68
2022-10-11T23:50:27.262Z,6.22
2022-10-11T23:55:29.859Z,4.35
